KECG/ECG METAR and TAF weather

Enter ICAO airport designator
Station Type Date Time Source
KECG METAR 2019/04/25 20:54 UTC NOAA

KECG 252054Z 23012KT 10SM CLR 31/13 A2980 RMK AO2 SLP091 T03060133 56010


Station Type Date Time Source
KECG Decoded METAR 2019/04/25 20:54 UTC NOAA

ELIZABETH CITY C/G REGN AIRPORT , NC, United States (KECG) 36-15N 076-10W 11M
Apr 25, 2019 - 04:54 PM EDT / 2019.04.25 2054 UTC
Wind: from the SW (230 degrees) at 14 MPH (12 KT):0
Visibility: 10 mile(s):0
Sky conditions: clear
Temperature: 87.1 F (30.6 C)
Dew Point: 55.9 F (13.3 C)
Relative Humidity: 34%
Pressure (altimeter): 29.8 in. Hg (1009 hPa)
Pressure tendency: 0.03 inches (1.0 hPa) lower than three hours ago
ob: KECG 252054Z 23012KT 10SM CLR 31/13 A2980 RMK AO2 SLP091 T03060133 56010
cycle: 21

Station Type Date Time Source
KECG TAF 2019/04/25 18:45 UTC NOAA

TAF KECG 251740Z 2518/2618 21011KT P6SM SCT150 BKN250
FM260200 19009KT P6SM BKN200
FM261500 19016G25KT P6SM VCSH BKN060

Example: see airport list